Time;durP1;ratioP1;P1;durP2;ratioP2;P2;SDS_P1;SDS_P2;PMS_P1;PMS_P2;Temp;Humidity;BMP_temperature;BMP_pressure;BME280_temperature;BME280_humidity;BME280_pressure;Samples;Min_cycle;Max_cycle;Signal;HPM_P1;HPM_P2
2021/09/16 00:01:15;;;;;;;33.33;20.70;;;12.90;99.90;;;;;;4957600;28;20273;-91
2021/09/16 00:03:42;;;;;;;42.83;19.65;;;13.20;99.90;;;;;;4974515;28;20257;-92
2021/09/16 00:06:08;;;;;;;35.70;20.45;;;13.20;99.90;;;;;;4956913;28;20260;-92
2021/09/16 00:08:33;;;;;;;40.35;20.98;;;13.20;99.90;;;;;;4941239;28;20653;-91
2021/09/16 00:10:59;;;;;;;38.10;20.10;;;13.20;99.90;;;;;;4924771;28;20265;-91
2021/09/16 00:13:24;;;;;;;35.35;19.92;;;13.20;99.90;;;;;;4957082;28;20178;-91
2021/09/16 00:15:53;;;;;;;34.30;20.52;;;;;;;;;;4940666;28;20179;-94
2021/09/16 00:18:19;;;;;;;34.65;19.52;;;13.10;99.90;;;;;;4974489;28;20199;-91
2021/09/16 00:20:45;;;;;;;38.60;20.52;;;13.10;99.90;;;;;;4956715;28;20179;-91
2021/09/16 00:23:11;;;;;;;35.03;19.95;;;13.10;99.90;;;;;;4975387;28;20662;-91
2021/09/16 00:25:37;;;;;;;38.00;20.92;;;;;;;;;;4978145;28;20532;-92
2021/09/16 00:28:02;;;;;;;30.77;19.20;;;12.90;99.90;;;;;;4977448;28;20325;-92
2021/09/16 00:30:28;;;;;;;33.65;20.77;;;13.00;99.90;;;;;;4960396;28;20175;-93
2021/09/16 00:32:54;;;;;;;31.70;19.75;;;;;;;;;;4960285;28;20547;-92
2021/09/16 00:35:20;;;;;;;32.58;20.38;;;13.30;99.90;;;;;;4944397;28;20191;-92
2021/09/16 00:37:46;;;;;;;33.08;20.38;;;;;;;;;;4977293;28;20583;-93
2021/09/16 00:40:12;;;;;;;33.65;20.17;;;13.10;99.90;;;;;;4944103;28;20182;-93
2021/09/16 00:42:38;;;;;;;30.75;19.00;;;12.90;99.90;;;;;;4960259;28;20194;-90
2021/09/16 00:45:04;;;;;;;32.40;20.17;;;;;;;;;;4943877;28;20183;-90
2021/09/16 00:47:30;;;;;;;36.53;19.88;;;13.10;99.90;;;;;;4977039;28;20190;-90
2021/09/16 00:49:55;;;;;;;32.63;20.48;;;12.90;99.90;;;;;;4959751;28;20535;-90
2021/09/16 00:52:22;;;;;;;33.33;20.25;;;13.10;99.90;;;;;;4959997;28;20179;-89
2021/09/16 00:54:49;;;;;;;30.40;19.88;;;13.10;99.90;;;;;;4959791;28;20628;-89
2021/09/16 00:57:17;;;;;;;32.70;19.05;;;13.10;99.90;;;;;;4976655;28;20257;-90
2021/09/16 00:59:45;;;;;;;35.95;20.58;;;13.00;99.90;;;;;;4959896;28;20532;-89
2021/09/16 01:02:11;;;;;;;34.00;20.20;;;12.90;99.90;;;;;;4959615;28;21063;-89
2021/09/16 01:04:37;;;;;;;33.95;19.77;;;;;;;;;;4977076;28;20229;-91
2021/09/16 01:07:03;;;;;;;35.20;20.25;;;13.20;99.90;;;;;;4976649;28;20191;-90
2021/09/16 01:09:32;;;;;;;37.45;21.35;;;13.10;99.90;;;;;;4943701;28;20186;-89
2021/09/16 01:11:58;;;;;;;31.25;19.50;;;;;;;;;;4959259;28;20215;-89
2021/09/16 01:14:28;;;;;;;33.50;20.55;;;12.80;99.90;;;;;;4976834;28;20210;-90
2021/09/16 01:16:55;;;;;;;34.38;20.67;;;13.20;99.90;;;;;;4959246;28;20261;-90
2021/09/16 01:19:21;;;;;;;28.90;19.23;;;13.10;99.90;;;;;;4977068;28;20269;-90
2021/09/16 01:21:47;;;;;;;35.28;20.58;;;13.00;99.90;;;;;;4976381;28;20170;-90
2021/09/16 01:24:14;;;;;;;33.97;20.15;;;13.10;99.90;;;;;;4958924;28;20217;-90
2021/09/16 01:26:42;;;;;;;34.38;19.52;;;13.10;99.90;;;;;;4976299;28;20234;-90
2021/09/16 01:29:08;;;;;;;32.92;19.25;;;12.80;99.90;;;;;;4976146;28;20254;-90
2021/09/16 01:31:43;;;;;;;30.73;20.25;;;13.10;99.90;;;;;;4959084;28;20191;-90
2021/09/16 01:34:10;;;;;;;34.53;21.35;;;13.10;99.90;;;;;;4975357;28;20172;-90
2021/09/16 01:36:37;;;;;;;35.42;21.17;;;13.00;99.90;;;;;;4958915;28;20628;-90
2021/09/16 01:39:08;;;;;;;36.03;21.30;;;13.00;99.90;;;;;;4942640;28;20215;-90
2021/09/16 01:41:34;;;;;;;33.97;20.48;;;13.00;99.90;;;;;;4958714;28;20289;-91
2021/09/16 01:44:00;;;;;;;34.25;19.85;;;13.00;99.90;;;;;;4976053;28;20258;-91
2021/09/16 01:46:25;;;;;;;31.52;20.45;;;12.80;99.90;;;;;;4976345;28;20174;-90
2021/09/16 01:48:51;;;;;;;33.45;21.05;;;13.00;99.90;;;;;;4942837;28;20193;-91
2021/09/16 01:51:17;;;;;;;33.47;19.77;;;13.00;99.90;;;;;;4958757;28;20178;-90
2021/09/16 01:53:43;;;;;;;33.42;19.38;;;13.00;99.90;;;;;;4959027;28;20525;-90
2021/09/16 01:56:09;;;;;;;35.63;19.92;;;13.00;99.90;;;;;;4942765;28;20543;-90
2021/09/16 01:58:36;;;;;;;34.50;21.02;;;13.20;99.90;;;;;;4943205;28;20214;-91
2021/09/16 02:01:03;;;;;;;31.98;20.30;;;13.00;99.90;;;;;;4959473;28;20174;-90
2021/09/16 02:03:28;;;;;;;31.30;19.73;;;13.00;99.90;;;;;;4959330;28;20186;-89
2021/09/16 02:05:54;;;;;;;35.83;21.13;;;13.00;99.90;;;;;;4943178;28;20337;-90
2021/09/16 02:08:20;;;;;;;40.83;22.05;;;;;;;;;;4976319;28;20213;-91
2021/09/16 02:10:46;;;;;;;36.47;21.45;;;13.10;99.90;;;;;;4958923;28;20526;-90
2021/09/16 02:13:11;;;;;;;33.92;20.48;;;13.10;99.90;;;;;;4959267;28;20190;-90
2021/09/16 02:15:37;;;;;;;36.33;21.02;;;13.10;99.90;;;;;;4960015;28;20253;-90
2021/09/16 02:18:03;;;;;;;31.63;22.02;;;13.10;99.90;;;;;;4977007;28;20202;-91
2021/09/16 02:20:28;;;;;;;32.50;20.70;;;13.10;99.90;;;;;;4976695;28;20682;-90
2021/09/16 02:22:54;;;;;;;35.55;20.98;;;13.20;99.90;;;;;;4959431;28;20174;-90
2021/09/16 02:25:20;;;;;;;34.90;21.08;;;13.20;99.90;;;;;;4987445;28;20191;-90
2021/09/16 02:27:46;;;;;;;40.83;21.40;;;;;;;;;;4978390;28;20242;-90
2021/09/16 02:30:12;;;;;;;32.60;21.10;;;13.10;99.90;;;;;;4995541;28;20179;-90
2021/09/16 02:32:38;;;;;;;33.70;21.67;;;13.20;99.90;;;;;;4964646;28;20205;-91
2021/09/16 02:35:04;;;;;;;39.08;21.85;;;13.20;99.90;;;;;;4960293;28;20179;-92
2021/09/16 02:37:30;;;;;;;37.17;20.92;;;13.20;99.90;;;;;;4986855;28;20270;-91
2021/09/16 02:39:56;;;;;;;37.67;23.38;;;;;;;;;;4979138;28;20190;-92
2021/09/16 02:42:22;;;;;;;36.30;21.85;;;13.20;99.90;;;;;;4996659;28;20209;-91
2021/09/16 02:44:48;;;;;;;37.20;21.48;;;13.20;99.90;;;;;;4959987;28;20182;-89
2021/09/16 02:47:14;;;;;;;40.30;23.38;;;;;;;;;;4975216;28;20632;-91
2021/09/16 02:49:39;;;;;;;35.20;22.08;;;13.20;99.90;;;;;;4975638;28;20175;-90
2021/09/16 02:52:05;;;;;;;45.58;23.48;;;;;;;;;;4975384;28;20640;-91
2021/09/16 02:54:31;;;;;;;41.08;22.95;;;13.20;99.90;;;;;;4975280;28;20179;-90
2021/09/16 02:56:57;;;;;;;37.33;22.23;;;13.20;99.90;;;;;;4957836;28;20228;-91
2021/09/16 02:59:23;;;;;;;45.95;23.80;;;;;;;;;;4974899;28;20184;-91
2021/09/16 03:01:48;;;;;;;35.78;23.77;;;13.20;99.90;;;;;;4958018;28;20186;-90
2021/09/16 03:04:14;;;;;;;36.55;23.27;;;;;;;;;;4974666;28;20179;-90
2021/09/16 03:06:40;;;;;;;39.40;24.60;;;13.20;99.90;;;;;;4975078;28;20175;-91
2021/09/16 03:09:06;;;;;;;36.28;22.13;;;;;;;;;;4957460;28;20193;-90
2021/09/16 03:11:31;;;;;;;35.90;22.70;;;13.20;99.90;;;;;;4957462;28;20189;-90
2021/09/16 03:13:57;;;;;;;41.28;22.95;;;13.20;99.90;;;;;;4957613;28;20186;-90
2021/09/16 03:16:23;;;;;;;38.60;23.63;;;13.10;99.90;;;;;;4957135;28;20545;-90
2021/09/16 03:18:49;;;;;;;37.00;23.15;;;;;;;;;;4974392;28;20217;-91
2021/09/16 03:21:14;;;;;;;40.35;23.65;;;13.20;99.90;;;;;;4957692;28;20534;-90
2021/09/16 03:23:40;;;;;;;37.90;23.33;;;13.20;99.90;;;;;;4974943;28;20187;-93
2021/09/16 03:26:06;;;;;;;42.15;24.88;;;13.30;99.90;;;;;;4957319;28;20178;-88
2021/09/16 03:28:32;;;;;;;38.20;23.85;;;;;;;;;;4974358;28;20242;-90
2021/09/16 03:30:58;;;;;;;42.13;25.17;;;13.20;99.90;;;;;;4975295;28;20170;-90
2021/09/16 03:33:24;;;;;;;38.28;24.42;;;13.60;99.90;;;;;;4976380;28;20274;-93
2021/09/16 03:35:50;;;;;;;41.78;24.95;;;;;;;;;;4977119;28;20197;-91
2021/09/16 03:38:16;;;;;;;43.53;25.25;;;;;;;;;;4959334;28;20250;-93
2021/09/16 03:40:41;;;;;;;43.22;25.98;;;13.50;99.90;;;;;;4977700;28;20260;-93
2021/09/16 03:43:07;;;;;;;38.75;25.52;;;;;;;;;;4976455;28;20213;-87
2021/09/16 03:45:33;;;;;;;43.85;25.63;;;13.50;99.90;;;;;;4958890;28;20183;-94
2021/09/16 03:47:59;;;;;;;45.65;26.23;;;;;;;;;;4974936;28;20186;-91
2021/09/16 03:50:25;;;;;;;42.42;25.38;;;13.60;99.90;;;;;;4957239;28;20213;-91
2021/09/16 03:52:51;;;;;;;42.50;25.35;;;;;;;;;;4957516;28;20202;-91
2021/09/16 03:55:17;;;;;;;46.03;26.92;;;13.90;99.90;;;;;;4957749;28;20236;-92
2021/09/16 03:57:43;;;;;;;42.80;26.52;;;;;;;;;;4975522;28;20293;-92
2021/09/16 04:00:09;;;;;;;45.55;26.45;;;13.70;99.90;;;;;;4978295;28;20189;-88
2021/09/16 04:02:35;;;;;;;42.83;26.02;;;13.80;99.90;;;;;;4960893;28;20178;-90
2021/09/16 04:05:01;;;;;;;41.42;27.00;;;13.80;99.90;;;;;;4960512;28;20281;-89
2021/09/16 04:07:27;;;;;;;47.67;25.73;;;;;;;;;;4928800;28;20685;-91
2021/09/16 04:09:53;;;;;;;44.13;25.23;;;13.80;99.90;;;;;;4960999;28;20195;-90
2021/09/16 04:12:19;;;;;;;40.97;25.42;;;13.90;99.90;;;;;;4961200;28;20178;-90
2021/09/16 04:14:44;;;;;;;55.60;27.58;;;13.70;99.90;;;;;;4952983;28;20579;-90
2021/09/16 04:17:10;;;;;;;44.03;26.08;;;13.90;99.90;;;;;;4957299;28;20215;-87
2021/09/16 04:19:35;;;;;;;49.85;26.80;;;13.90;99.90;;;;;;4958180;28;20216;-90
2021/09/16 04:22:01;;;;;;;45.00;28.10;;;14.00;99.90;;;;;;4975866;28;20182;-91
2021/09/16 04:24:27;;;;;;;47.97;26.88;;;14.00;99.90;;;;;;4939092;29;20199;-90
2021/09/16 04:26:52;;;;;;;42.22;26.08;;;14.00;99.90;;;;;;4980293;28;20298;-92
2021/09/16 04:29:18;;;;;;;51.85;27.58;;;14.00;99.90;;;;;;4975006;28;20225;-92
2021/09/16 04:31:44;;;;;;;49.65;28.13;;;14.00;99.90;;;;;;4970106;28;21012;-92
2021/09/16 04:34:10;;;;;;;45.35;27.02;;;;;;;;;;4955155;28;20656;-93
2021/09/16 04:36:36;;;;;;;48.13;28.83;;;14.10;99.90;;;;;;4960482;28;20198;-93
2021/09/16 04:39:03;;;;;;;51.00;27.58;;;14.10;99.90;;;;;;4957419;28;20631;-92
2021/09/16 04:41:30;;;;;;;46.50;27.83;;;14.10;99.90;;;;;;4977549;28;20273;-91
2021/09/16 04:43:56;;;;;;;45.13;27.52;;;14.20;99.90;;;;;;4977947;28;20209;-92
2021/09/16 04:46:22;;;;;;;51.17;29.77;;;14.10;99.90;;;;;;4984137;28;20211;-91
2021/09/16 04:48:47;;;;;;;44.90;28.00;;;14.20;99.90;;;;;;4954330;29;20195;-91
2021/09/16 04:51:13;;;;;;;47.20;28.13;;;14.20;99.90;;;;;;4936325;28;20259;-87
2021/09/16 04:53:39;;;;;;;46.80;28.63;;;14.20;99.90;;;;;;4961356;28;20946;-92
2021/09/16 04:56:05;;;;;;;49.92;28.45;;;;;;;;;;4959521;28;20190;-93
2021/09/16 04:58:31;;;;;;;55.63;30.80;;;14.30;99.90;;;;;;4977899;28;20679;-92
2021/09/16 05:00:56;;;;;;;47.63;28.73;;;14.30;99.90;;;;;;4948644;28;20187;-93
2021/09/16 05:03:22;;;;;;;52.42;29.27;;;14.40;99.90;;;;;;4942537;28;20535;-91
2021/09/16 05:05:48;;;;;;;48.15;28.15;;;14.40;99.90;;;;;;4957549;28;20187;-92
2021/09/16 05:08:15;;;;;;;51.45;29.02;;;14.40;99.90;;;;;;4941628;28;20187;-92
2021/09/16 05:10:41;;;;;;;46.80;29.65;;;14.50;99.90;;;;;;4956628;28;20656;-91
2021/09/16 05:13:07;;;;;;;48.25;28.83;;;14.50;99.90;;;;;;4959658;28;20300;-94
2021/09/16 05:15:33;;;;;;;46.13;28.02;;;14.70;99.90;;;;;;4959969;28;20676;-93
2021/09/16 05:17:58;;;;;;;47.88;28.65;;;14.50;99.90;;;;;;4958229;28;20215;-92
2021/09/16 05:20:24;;;;;;;50.30;29.55;;;14.60;99.90;;;;;;4956834;28;20225;-94
2021/09/16 05:22:50;;;;;;;49.80;30.23;;;14.60;99.90;;;;;;4958610;28;20189;-94
2021/09/16 05:25:15;;;;;;;45.35;28.65;;;14.60;99.90;;;;;;4958184;28;20225;-90
2021/09/16 05:27:41;;;;;;;50.05;29.15;;;14.60;99.90;;;;;;4957985;28;20668;-94
2021/09/16 05:30:07;;;;;;;52.90;29.77;;;14.70;99.90;;;;;;4974450;28;20190;-94
2021/09/16 05:32:33;;;;;;;48.08;29.75;;;14.80;99.90;;;;;;4957648;28;20931;-94
2021/09/16 05:34:59;;;;;;;57.58;30.13;;;14.80;99.90;;;;;;4958731;28;20190;-94
2021/09/16 05:37:24;;;;;;;51.70;30.40;;;14.80;99.90;;;;;;4975306;28;20218;-94
2021/09/16 05:39:51;;;;;;;48.80;29.15;;;;;;;;;;4959523;28;20234;-91
2021/09/16 05:42:17;;;;;;;49.38;30.55;;;14.90;99.90;;;;;;4974964;28;20229;-91
2021/09/16 05:44:43;;;;;;;52.00;29.70;;;15.00;99.90;;;;;;4974637;28;20202;-92
2021/09/16 05:47:08;;;;;;;44.88;27.95;;;15.00;99.90;;;;;;4944784;28;20194;-93
2021/09/16 05:49:34;;;;;;;46.80;28.25;;;;;;;;;;4951604;28;20191;-90
2021/09/16 05:52:00;;;;;;;44.88;27.65;;;15.10;99.90;;;;;;4989756;28;20194;-91
2021/09/16 05:54:26;;;;;;;51.22;28.65;;;15.10;99.90;;;;;;4961470;28;20189;-93
2021/09/16 05:56:51;;;;;;;53.58;29.58;;;15.20;99.90;;;;;;4932836;28;20190;-94
2021/09/16 05:59:17;;;;;;;49.53;28.00;;;15.20;99.90;;;;;;4963763;28;20202;-93
2021/09/16 06:01:43;;;;;;;45.10;27.48;;;15.20;99.90;;;;;;4978220;28;20191;-94
2021/09/16 06:04:08;;;;;;;47.58;27.60;;;15.30;99.90;;;;;;4960093;28;20548;-92
2021/09/16 06:06:34;;;;;;;43.33;27.67;;;15.30;99.90;;;;;;4979025;28;20233;-93
2021/09/16 06:09:00;;;;;;;45.63;27.90;;;15.40;99.90;;;;;;4963753;28;20560;-93
2021/09/16 06:11:25;;;;;;;48.58;28.15;;;15.40;99.90;;;;;;4974971;28;20186;-91
2021/09/16 06:13:54;;;;;;;52.58;28.10;;;15.50;99.90;;;;;;4959307;28;20205;-92
2021/09/16 06:16:21;;;;;;;52.97;31.15;;;15.60;99.90;;;;;;4957287;28;20655;-91
2021/09/16 06:18:47;;;;;;;54.00;30.83;;;15.60;99.90;;;;;;4957046;28;20663;-92
2021/09/16 06:21:12;;;;;;;53.15;30.63;;;15.70;99.90;;;;;;4973647;28;20245;-92
2021/09/16 06:23:38;;;;;;;54.40;33.33;;;;;;;;;;4956251;28;20985;-95
2021/09/16 06:26:04;;;;;;;51.35;31.73;;;15.70;99.90;;;;;;4943180;28;20234;-94
2021/09/16 06:28:30;;;;;;;56.28;33.88;;;15.80;99.90;;;;;;4973354;28;20242;-93
2021/09/16 06:30:55;;;;;;;58.20;33.75;;;15.90;99.90;;;;;;4973681;28;20187;-92
2021/09/16 06:33:21;;;;;;;56.70;34.70;;;;;;;;;;4960414;28;20191;-91
2021/09/16 06:35:47;;;;;;;58.88;33.80;;;16.00;99.90;;;;;;4973312;28;20193;-93
2021/09/16 06:38:13;;;;;;;55.97;33.42;;;;;;;;;;4957136;28;20226;-92
2021/09/16 06:40:39;;;;;;;58.05;32.92;;;16.20;99.90;;;;;;4956552;28;20186;-92
2021/09/16 06:43:05;;;;;;;52.78;31.63;;;16.30;99.90;;;;;;4955891;28;20258;-91
2021/09/16 06:45:30;;;;;;;49.30;28.20;;;16.40;99.90;;;;;;4973655;28;20186;-92
2021/09/16 06:47:56;;;;;;;57.10;32.45;;;16.50;99.90;;;;;;4973794;28;20201;-93
2021/09/16 06:50:22;;;;;;;60.63;31.35;;;16.70;99.90;;;;;;4940535;28;20197;-95
2021/09/16 06:52:48;;;;;;;44.33;26.88;;;16.80;99.90;;;;;;4957494;28;20201;-93
2021/09/16 06:55:13;;;;;;;43.88;25.42;;;16.90;99.90;;;;;;4939546;28;20198;-92
2021/09/16 06:57:39;;;;;;;43.33;25.67;;;17.00;99.90;;;;;;4972183;28;20576;-91
2021/09/16 07:00:06;;;;;;;41.95;24.70;;;17.00;99.90;;;;;;4939695;28;20241;-91
2021/09/16 07:02:34;;;;;;;42.97;25.13;;;17.10;99.90;;;;;;4956184;28;20218;-92
2021/09/16 07:05:00;;;;;;;37.15;23.90;;;17.20;99.90;;;;;;4959563;28;20201;-88
2021/09/16 07:07:26;;;;;;;37.42;23.17;;;;;;;;;;4969838;28;20203;-90
2021/09/16 07:09:52;;;;;;;42.47;23.33;;;17.20;99.90;;;;;;4964396;28;20194;-89
2021/09/16 07:12:18;;;;;;;37.85;22.08;;;17.20;99.90;;;;;;4978335;28;20770;-89
2021/09/16 07:14:44;;;;;;;33.38;22.23;;;17.20;99.90;;;;;;4960411;28;20679;-90
2021/09/16 07:17:10;;;;;;;38.00;21.48;;;17.30;99.90;;;;;;4966353;28;20214;-90
2021/09/16 07:19:36;;;;;;;31.80;22.20;;;17.30;99.90;;;;;;4962977;28;20209;-90
2021/09/16 07:22:02;;;;;;;42.00;22.35;;;17.30;99.90;;;;;;4979923;28;20655;-91
2021/09/16 07:24:28;;;;;;;34.42;22.25;;;17.20;99.90;;;;;;4964717;28;20241;-87
2021/09/16 07:26:53;;;;;;;35.15;22.63;;;17.30;99.90;;;;;;4983021;28;20718;-90
2021/09/16 07:29:21;;;;;;;38.05;22.50;;;17.20;99.90;;;;;;5010203;23;20266;-91
2021/09/16 07:31:48;;;;;;;43.78;27.55;;;17.20;99.90;;;;;;4969880;28;20191;-91
2021/09/16 07:34:15;;;;;;;44.85;26.13;;;17.20;99.90;;;;;;4966648;28;20269;-90
2021/09/16 07:36:46;;;;;;;47.35;28.73;;;17.30;99.90;;;;;;4983591;28;20190;-91
2021/09/16 07:39:14;;;;;;;48.42;29.25;;;17.30;99.90;;;;;;4988700;28;20202;-90
2021/09/16 07:41:40;;;;;;;51.58;28.05;;;17.30;99.90;;;;;;4989448;28;20203;-91
2021/09/16 07:44:06;;;;;;;44.20;27.33;;;17.40;99.90;;;;;;4989241;28;20257;-91
2021/09/16 07:46:32;;;;;;;50.90;26.85;;;17.50;99.90;;;;;;4988973;28;20187;-92
2021/09/16 07:48:58;;;;;;;39.30;23.55;;;17.50;99.90;;;;;;4954210;29;20183;-91
2021/09/16 07:51:25;;;;;;;36.63;22.33;;;17.50;99.90;;;;;;4970436;28;20213;-88
2021/09/16 07:53:50;;;;;;;34.65;21.92;;;17.60;99.90;;;;;;4938466;29;20266;-87
2021/09/16 07:56:16;;;;;;;42.40;23.60;;;17.60;99.90;;;;;;4971410;28;20207;-90
2021/09/16 07:58:43;;;;;;;37.95;23.48;;;;;;;;;;4950757;29;20210;-92
2021/09/16 08:01:09;;;;;;;38.55;23.30;;;17.70;99.90;;;;;;4961500;28;20191;-90
2021/09/16 08:03:35;;;;;;;34.83;22.77;;;17.90;99.90;;;;;;4962156;28;20640;-92
2021/09/16 08:06:01;;;;;;;34.35;22.50;;;17.90;99.90;;;;;;4963813;28;20176;-93
2021/09/16 08:08:27;;;;;;;36.20;22.58;;;17.90;99.90;;;;;;4953226;28;20184;-93
2021/09/16 08:10:52;;;;;;;39.97;23.30;;;18.00;99.90;;;;;;4957991;28;20195;-93
2021/09/16 08:13:18;;;;;;;34.42;22.88;;;18.10;99.90;;;;;;4964618;28;20175;-92
2021/09/16 08:15:44;;;;;;;36.95;23.52;;;18.00;99.90;;;;;;4970728;23;20214;-91
2021/09/16 08:18:10;;;;;;;36.63;21.83;;;18.20;99.90;;;;;;4974610;28;20223;-94
2021/09/16 08:20:45;;;;;;;31.23;21.20;;;18.30;99.90;;;;;;4969347;29;20167;-88
2021/09/16 08:23:12;;;;;;;34.63;21.48;;;18.30;99.90;;;;;;4956596;29;20195;-93
2021/09/16 08:25:37;;;;;;;33.50;21.70;;;18.40;99.90;;;;;;4958937;29;20191;-92
2021/09/16 08:28:03;;;;;;;37.08;21.30;;;18.50;99.90;;;;;;4970666;29;20255;-87
2021/09/16 08:30:29;;;;;;;32.20;20.38;;;18.50;99.90;;;;;;4971070;29;20194;-90
2021/09/16 08:32:55;;;;;;;32.28;21.25;;;18.50;99.90;;;;;;4970474;29;20180;-87
2021/09/16 08:35:21;;;;;;;34.33;19.98;;;18.70;99.90;;;;;;4960836;29;20622;-93
2021/09/16 08:37:47;;;;;;;30.08;18.42;;;18.80;99.90;;;;;;4959192;29;20243;-90
2021/09/16 08:40:13;;;;;;;32.47;20.30;;;19.00;99.90;;;;;;4973636;28;20246;-91
2021/09/16 08:42:42;;;;;;;26.85;17.38;;;19.10;99.90;;;;;;4959621;29;20202;-90
2021/09/16 08:45:13;;;;;;;30.65;19.52;;;19.20;99.90;;;;;;4964060;28;20268;-94
2021/09/16 08:47:40;;;;;;;28.85;18.23;;;19.30;99.90;;;;;;4963827;28;20809;-96
2021/09/16 08:50:07;;;;;;;31.13;18.95;;;19.30;99.90;;;;;;4963225;28;20195;-94
2021/09/16 08:52:37;;;;;;;29.10;18.67;;;19.40;99.90;;;;;;4951656;29;20179;-94
2021/09/16 08:57:41;;;;;;;26.73;18.88;;;19.70;99.90;;;;;;4977749;23;20244;-96
2021/09/16 09:00:13;;;;;;;27.40;18.30;;;19.80;99.90;;;;;;4949566;29;20883;-96
2021/09/16 09:02:39;;;;;;;31.90;17.70;;;19.90;99.90;;;;;;5202940;23;20240;-95
2021/09/16 09:05:07;;;;;;;30.95;17.90;;;19.90;99.90;;;;;;4933556;29;20252;-92
2021/09/16 09:07:40;;;;;;;25.55;16.75;;;19.70;99.90;;;;;;5134217;23;20253;-93
2021/09/16 09:10:07;;;;;;;24.80;16.95;;;20.00;99.90;;;;;;4972233;28;20203;-89
2021/09/16 09:12:36;;;;;;;29.35;16.75;;;20.00;99.90;;;;;;4968906;28;20242;-95
2021/09/16 09:15:03;;;;;;;25.02;17.05;;;20.20;99.90;;;;;;4965769;28;20190;-95
2021/09/16 09:17:31;;;;;;;27.63;18.52;;;20.30;99.90;;;;;;4948597;29;20584;-90
2021/09/16 09:20:05;;;;;;;23.60;16.10;;;20.30;99.90;;;;;;4972430;28;20167;-95
2021/09/16 09:22:37;;;;;;;21.92;15.60;;;20.40;99.90;;;;;;5308532;23;20260;-89
2021/09/16 09:25:49;;;;;;;27.55;15.95;;;20.50;99.90;;;;;;5329285;23;20251;31
2021/09/16 09:31:21;;;;;;;24.70;15.70;;;20.50;99.90;;;;;;5301518;23;20231;-92
2021/09/16 09:41:36;;;;;;;24.80;15.80;;;20.70;99.90;;;;;;5733519;23;20239;-90
2021/09/16 09:49:12;;;;;;;27.60;15.95;;;20.70;99.90;;;;;;5841846;23;20228;-93
2021/09/16 09:51:40;;;;;;;28.77;17.55;;;20.70;99.90;;;;;;5735758;23;21161;-89
2021/09/16 09:54:19;;;;;;;29.35;17.45;;;19.80;99.90;;;;;;5122095;23;20250;-89
2021/09/16 09:57:11;;;;;;;28.30;17.55;;;20.80;99.90;;;;;;5408954;23;20253;-89
2021/09/16 10:02:15;;;;;;;27.75;17.55;;;20.80;99.90;;;;;;5264643;23;20253;-95
2021/09/16 10:04:42;;;;;;;29.98;17.33;;;20.80;99.90;;;;;;4974559;28;20199;-91
2021/09/16 10:07:08;;;;;;;24.27;16.25;;;20.50;99.90;;;;;;4977604;28;20215;-89
2021/09/16 10:09:34;;;;;;;26.27;16.33;;;20.80;99.90;;;;;;4974060;28;20195;-88
2021/09/16 10:12:00;;;;;;;30.73;17.25;;;;;;;;;;5248103;23;20261;-94
2021/09/16 10:14:26;;;;;;;23.48;16.45;;;;;;;;;;5389524;23;20198;-93
2021/09/16 10:16:53;;;;;;;29.05;17.60;;;;;;;;;;5010187;23;20246;-90
2021/09/16 10:27:28;;;;;;;31.38;17.67;;;20.50;99.90;;;;;;5849917;23;20232;-93
2021/09/16 10:29:55;;;;;;;26.80;18.25;;;20.50;99.90;;;;;;5217200;23;20564;-90
2021/09/16 10:34:59;;;;;;;31.40;18.50;;;20.40;99.90;;;;;;5467916;23;20528;-95
2021/09/16 10:40:33;;;;;;;27.50;15.63;;;20.40;99.90;;;;;;5443809;23;20231;-90
2021/09/16 10:45:36;;;;;;;26.00;15.80;;;20.40;99.90;;;;;;4962682;28;20199;-92
2021/09/16 10:48:14;;;;;;;22.48;15.55;;;20.40;99.90;;;;;;4967766;28;20179;-94
2021/09/16 10:50:45;;;;;;;30.42;16.63;;;20.40;99.90;;;;;;4951191;29;20222;-96
2021/09/16 10:53:30;;;;;;;22.23;16.13;;;20.40;99.90;;;;;;4951118;29;20187;-95
2021/09/16 10:55:56;;;;;;;23.15;15.93;;;20.50;99.90;;;;;;4960005;28;20183;-87
2021/09/16 10:58:26;;;;;;;24.63;14.93;;;20.50;99.90;;;;;;5060663;23;1162153;-94
2021/09/16 11:00:52;;;;;;;22.00;15.48;;;20.60;99.90;;;;;;4964728;28;20211;-93
2021/09/16 11:03:18;;;;;;;17.02;13.82;;;20.60;99.90;;;;;;5052323;23;20243;-93
2021/09/16 11:09:02;;;;;;;20.83;13.75;;;20.90;99.90;;;;;;5051532;23;20327;-85
2021/09/16 11:11:58;;;;;;;20.95;14.65;;;20.80;99.90;;;;;;4943057;29;20207;-92
2021/09/16 11:14:40;;;;;;;20.15;14.43;;;20.90;99.90;;;;;;5049396;23;20238;-94
2021/09/16 11:17:08;;;;;;;24.30;15.73;;;21.00;99.90;;;;;;4962682;28;20720;-95
2021/09/16 11:19:47;;;;;;;23.65;14.85;;;21.10;99.90;;;;;;4965123;28;20183;-95
2021/09/16 11:22:14;;;;;;;23.00;14.82;;;21.30;99.90;;;;;;4932995;28;20175;-92
2021/09/16 11:24:43;;;;;;;25.67;14.85;;;21.20;99.90;;;;;;5139525;23;20239;-90
2021/09/16 11:27:11;;;;;;;18.60;14.20;;;21.40;99.90;;;;;;4977261;23;20477;-93
2021/09/16 11:29:39;;;;;;;22.48;14.13;;;21.20;99.90;;;;;;4966479;28;20283;-95
2021/09/16 11:32:05;;;;;;;21.27;14.10;;;20.80;99.90;;;;;;5054119;23;20254;-95
2021/09/16 11:34:30;;;;;;;20.08;14.10;;;21.30;99.90;;;;;;4950689;28;20191;-95
2021/09/16 11:37:16;;;;;;;20.45;14.30;;;21.40;99.90;;;;;;4944611;29;20181;-86
2021/09/16 11:39:41;;;;;;;23.45;14.00;;;21.20;99.90;;;;;;4950465;29;20207;-93
2021/09/16 11:42:16;;;;;;;24.17;14.68;;;21.50;99.90;;;;;;5026775;23;20258;-89
2021/09/16 11:44:57;;;;;;;20.13;13.63;;;21.50;99.90;;;;;;4981777;23;20328;-93
2021/09/16 11:47:24;;;;;;;19.08;15.02;;;21.60;99.90;;;;;;4950468;28;20213;-96
2021/09/16 11:49:50;;;;;;;20.45;14.73;;;;;;;;;;4925587;29;20204;-95
2021/09/16 11:52:21;;;;;;;19.30;13.98;;;21.60;99.90;;;;;;4953366;29;20187;-90
2021/09/16 11:55:19;;;;;;;22.73;14.82;;;21.60;99.90;;;;;;4947955;29;20191;-90
2021/09/16 11:58:03;;;;;;;19.23;15.13;;;21.30;99.90;;;;;;4886895;29;20223;-92
2021/09/16 12:00:48;;;;;;;22.73;16.30;;;21.60;99.90;;;;;;4939006;29;20166;-93
2021/09/16 12:03:29;;;;;;;19.95;14.30;;;21.70;99.90;;;;;;4948066;29;20712;-91
2021/09/16 12:05:57;;;;;;;21.83;15.02;;;21.70;99.90;;;;;;5215758;23;20264;-86
2021/09/16 12:08:29;;;;;;;21.80;14.85;;;21.70;99.90;;;;;;4973125;28;20190;-91
2021/09/16 12:11:09;;;;;;;27.35;15.73;;;21.60;99.90;;;;;;4985303;23;20298;-93
2021/09/16 12:16:24;;;;;;;24.27;15.77;;;21.90;99.90;;;;;;5002591;23;20649;-92
2021/09/16 12:21:30;;;;;;;23.90;15.35;;;21.60;99.90;;;;;;5043755;23;20269;-89
2021/09/16 12:24:02;;;;;;;27.85;16.98;;;21.70;99.90;;;;;;4949350;29;20199;-90
2021/09/16 12:26:29;;;;;;;32.65;20.25;;;21.70;99.90;;;;;;4950181;29;20216;-94
2021/09/16 12:29:06;;;;;;;23.63;17.30;;;21.70;99.90;;;;;;4947332;28;20657;-95
2021/09/16 12:31:42;;;;;;;24.70;15.40;;;21.70;99.90;;;;;;4949692;29;20258;-95
2021/09/16 12:34:11;;;;;;;23.00;15.45;;;21.80;99.90;;;;;;4951377;29;20183;-95
2021/09/16 12:36:58;;;;;;;19.83;15.20;;;21.70;99.90;;;;;;5297594;23;20250;-93
2021/09/16 12:39:26;;;;;;;25.13;15.45;;;21.70;99.90;;;;;;4962439;28;20227;-94
2021/09/16 12:41:52;;;;;;;21.27;14.40;;;;;;;;;;4963446;28;20911;-94
2021/09/16 12:44:24;;;;;;;22.48;14.90;;;21.70;99.90;;;;;;5238038;23;20206;-90
2021/09/16 12:47:06;;;;;;;23.52;14.40;;;21.60;99.90;;;;;;5158086;23;20246;-94
2021/09/16 12:49:33;;;;;;;21.52;14.63;;;;;;;;;;4959908;29;20163;-89
2021/09/16 12:52:02;;;;;;;27.77;15.85;;;21.70;99.90;;;;;;4957654;28;20179;-88
2021/09/16 12:54:29;;;;;;;22.70;14.77;;;;;;;;;;4972890;23;20195;-90
2021/09/16 12:56:55;;;;;;;28.30;16.02;;;;;;;;;;4965981;28;20261;-94
2021/09/16 12:59:27;;;;;;;21.90;14.10;;;21.60;99.90;;;;;;4965252;28;20203;-94
2021/09/16 13:02:27;;;;;;;26.73;15.20;;;21.60;99.90;;;;;;4963129;28;20210;-96
2021/09/16 13:04:59;;;;;;;24.98;15.27;;;21.60;99.90;;;;;;4932929;28;20222;-96
2021/09/16 13:10:15;;;;;;;21.67;14.88;;;21.60;99.90;;;;;;5008343;23;20252;-92
2021/09/16 13:12:44;;;;;;;20.05;14.98;;;21.60;99.90;;;;;;5025667;23;20243;-93
2021/09/16 13:15:12;;;;;;;23.60;16.80;;;21.60;99.90;;;;;;5032861;23;20719;-96
2021/09/16 13:17:39;;;;;;;24.38;16.15;;;;;;;;;;4979874;28;20206;-90
2021/09/16 13:20:06;;;;;;;22.92;16.77;;;;;;;;;;4978234;28;20187;-89
2021/09/16 13:22:32;;;;;;;23.83;14.93;;;21.50;99.90;;;;;;4956951;28;20177;-95
2021/09/16 13:27:30;;;;;;;22.25;14.55;;;;;;;;;;5485760;23;20250;-89
2021/09/16 13:35:09;;;;;;;20.52;15.73;;;21.60;99.90;;;;;;5482732;23;20302;-89
2021/09/16 13:40:25;;;;;;;25.35;14.68;;;;;;;;;;5832929;23;21072;-88
2021/09/16 13:42:51;;;;;;;28.55;16.30;;;;;;;;;;4949675;29;20206;-88